Time;durP1;ratioP1;P1;durP2;ratioP2;P2;SDS_P1;SDS_P2;PMS_P1;PMS_P2;Temp;Humidity;BMP_temperature;BMP_pressure;BME280_temperature;BME280_humidity;BME280_pressure;Samples;Min_cycle;Max_cycle;Signal;HPM_P1;HPM_P2
2023/08/17 00:02:12;;;;;;;2.28;1.27;;;17.00;99.90;;;;;;5065909;28;20044;-81
2023/08/17 00:04:40;;;;;;;1.13;0.90;;;17.00;99.90;;;;;;5048182;28;20048;-80
2023/08/17 00:07:06;;;;;;;1.52;1.33;;;17.00;99.90;;;;;;5065930;28;20048;-80
2023/08/17 00:09:33;;;;;;;1.23;1.08;;;17.10;99.90;;;;;;5064807;28;20125;-80
2023/08/17 00:12:00;;;;;;;1.38;1.20;;;17.10;99.90;;;;;;5063476;28;20044;-81
2023/08/17 00:14:26;;;;;;;1.10;1.00;;;17.10;99.90;;;;;;5066244;28;20078;-80
2023/08/17 00:16:53;;;;;;;1.10;0.85;;;17.20;1.00;;;;;;5065331;28;20577;-81
2023/08/17 00:19:20;;;;;;;1.15;1.02;;;17.20;1.00;;;;;;5064006;28;20138;-80
2023/08/17 00:21:47;;;;;;;1.33;1.05;;;17.30;99.90;;;;;;5065492;28;21282;-81
2023/08/17 00:24:14;;;;;;;1.23;1.02;;;17.40;1.00;;;;;;5045653;28;20270;-81
2023/08/17 00:26:40;;;;;;;1.60;0.98;;;17.40;1.00;;;;;;5060703;28;20089;-80
2023/08/17 00:29:07;;;;;;;1.13;1.00;;;17.50;99.90;;;;;;5063425;28;20078;-80
2023/08/17 00:31:34;;;;;;;1.63;1.13;;;17.50;99.90;;;;;;5080011;28;20444;-80
2023/08/17 00:34:01;;;;;;;1.10;0.82;;;17.50;99.90;;;;;;5035126;28;20415;-80
2023/08/17 00:36:28;;;;;;;1.70;1.20;;;17.50;99.90;;;;;;5063155;28;20124;-81
2023/08/17 00:38:54;;;;;;;1.45;1.30;;;17.50;99.90;;;;;;5063793;28;20049;-83
2023/08/17 00:41:21;;;;;;;1.95;1.25;;;17.50;99.90;;;;;;5044654;28;20134;-81
2023/08/17 00:43:48;;;;;;;1.58;0.95;;;17.50;99.90;;;;;;5063736;28;20490;-80
2023/08/17 00:46:15;;;;;;;1.67;1.20;;;17.40;99.90;;;;;;5061861;28;20045;-80
2023/08/17 00:48:42;;;;;;;1.42;1.15;;;17.40;99.90;;;;;;5043381;28;20612;-80
2023/08/17 00:51:08;;;;;;;1.33;1.00;;;17.40;1.00;;;;;;5063931;28;20128;-81
2023/08/17 00:53:35;;;;;;;1.38;0.90;;;17.30;1.00;;;;;;5063140;28;20476;-80
2023/08/17 00:56:02;;;;;;;1.67;0.90;;;17.20;1.00;;;;;;5045902;28;20080;-80
2023/08/17 00:58:29;;;;;;;1.33;1.02;;;17.30;1.00;;;;;;5063333;28;20125;-80
2023/08/17 01:00:56;;;;;;;1.10;1.00;;;17.30;1.00;;;;;;5063445;28;20488;-80
2023/08/17 01:03:22;;;;;;;1.60;1.40;;;17.20;1.00;;;;;;5061079;28;20052;-80
2023/08/17 01:05:49;;;;;;;1.17;1.08;;;17.20;11.60;;;;;;5044094;28;20128;-80
2023/08/17 01:08:16;;;;;;;1.52;1.20;;;17.10;24.40;;;;;;5062634;28;20084;-80
2023/08/17 01:11:10;;;;;;;2.00;1.40;;;17.10;41.10;;;;;;5064022;28;20045;-80
2023/08/17 01:13:50;;;;;;;1.60;1.30;;;17.10;56.80;;;;;;5063731;28;20040;-80
2023/08/17 01:16:22;;;;;;;1.20;0.90;;;17.00;91.00;;;;;;5046300;28;20044;-80
2023/08/17 01:18:49;;;;;;;1.48;1.02;;;17.00;99.90;;;;;;5063891;28;20048;-80
2023/08/17 01:21:16;;;;;;;1.55;1.00;;;17.00;99.60;;;;;;5063306;28;20091;-80
2023/08/17 01:23:45;;;;;;;1.50;1.20;;;17.00;99.90;;;;;;5063294;28;20165;-81
2023/08/17 01:26:15;;;;;;;2.05;1.30;;;17.00;99.90;;;;;;5060554;28;20076;-81
2023/08/17 01:28:45;;;;;;;1.77;1.40;;;17.00;99.90;;;;;;5064217;28;20036;-80
2023/08/17 01:31:31;;;;;;;1.60;0.93;;;17.00;99.90;;;;;;5061025;28;20078;-79
2023/08/17 01:34:04;;;;;;;1.35;1.10;;;17.00;99.90;;;;;;5044528;28;20079;-80
2023/08/17 01:36:39;;;;;;;1.52;1.17;;;17.00;99.90;;;;;;5048796;28;20501;-80
2023/08/17 01:39:06;;;;;;;1.23;0.88;;;17.00;99.90;;;;;;5059882;28;20455;-80
2023/08/17 01:41:33;;;;;;;1.08;0.93;;;17.00;99.90;;;;;;5059974;28;20068;-81
2023/08/17 01:44:00;;;;;;;1.75;1.13;;;16.90;99.90;;;;;;5062010;28;20040;-80
2023/08/17 01:46:30;;;;;;;1.58;1.15;;;17.00;99.90;;;;;;5063430;28;20174;-81
2023/08/17 01:48:57;;;;;;;1.38;0.93;;;17.00;99.90;;;;;;5063583;28;20149;-81
2023/08/17 01:51:25;;;;;;;1.52;1.10;;;17.00;99.90;;;;;;5064167;28;20560;-81
2023/08/17 01:53:52;;;;;;;1.63;1.27;;;17.00;99.90;;;;;;5065303;28;20044;-81
2023/08/17 01:56:18;;;;;;;2.25;1.80;;;17.00;99.90;;;;;;5044770;28;20134;-80
2023/08/17 01:58:45;;;;;;;1.73;1.40;;;17.00;99.90;;;;;;5063410;28;20056;-80
2023/08/17 02:01:12;;;;;;;1.40;1.20;;;17.00;99.90;;;;;;5063005;28;20044;-80
2023/08/17 02:03:39;;;;;;;1.33;1.10;;;17.10;99.90;;;;;;5065416;28;20439;-80
2023/08/17 02:06:06;;;;;;;1.40;1.13;;;17.10;99.90;;;;;;5064405;28;20110;-80
2023/08/17 02:08:34;;;;;;;1.35;1.15;;;17.10;1.00;;;;;;5065297;28;20044;-80
2023/08/17 02:11:00;;;;;;;1.42;1.20;;;17.10;1.00;;;;;;5046232;28;20068;-80
2023/08/17 02:13:27;;;;;;;1.25;0.90;;;17.10;1.00;;;;;;5062944;28;20084;-80
2023/08/17 02:15:54;;;;;;;1.17;0.90;;;17.10;1.00;;;;;;5064860;28;20052;-81
2023/08/17 02:18:21;;;;;;;2.20;1.23;;;17.10;1.00;;;;;;5064840;28;20109;-80
2023/08/17 02:20:48;;;;;;;1.38;1.02;;;17.10;1.00;;;;;;5063712;28;20044;-80
2023/08/17 02:23:14;;;;;;;1.67;1.10;;;17.10;1.00;;;;;;5060069;28;20055;-80
2023/08/17 02:25:41;;;;;;;1.60;1.00;;;17.10;1.00;;;;;;5068507;28;20044;-80
2023/08/17 02:28:08;;;;;;;1.45;1.00;;;17.10;1.00;;;;;;5067271;28;20125;-78
2023/08/17 02:30:35;;;;;;;1.10;0.85;;;17.10;1.00;;;;;;5068430;28;20118;-80
2023/08/17 02:33:02;;;;;;;1.60;1.10;;;17.20;1.00;;;;;;5051763;28;20140;-80
2023/08/17 02:35:29;;;;;;;1.30;0.90;;;17.20;1.00;;;;;;5050816;28;20049;-81
2023/08/17 02:37:56;;;;;;;2.35;1.45;;;17.20;1.00;;;;;;5066406;28;20040;-81
2023/08/17 02:40:22;;;;;;;2.03;1.02;;;17.20;1.00;;;;;;5067509;28;20060;-80
2023/08/17 02:42:49;;;;;;;1.55;0.85;;;17.20;1.00;;;;;;5066414;28;20109;-80
2023/08/17 02:45:16;;;;;;;1.10;0.88;;;17.20;1.00;;;;;;5068365;28;20045;-79
2023/08/17 02:47:43;;;;;;;1.25;0.80;;;17.20;1.00;;;;;;5066084;28;20102;-80
2023/08/17 02:50:10;;;;;;;1.25;0.82;;;17.20;1.00;;;;;;5067072;28;20132;-80
2023/08/17 02:52:36;;;;;;;1.65;0.98;;;17.20;1.00;;;;;;5066283;28;20499;-80
2023/08/17 02:55:04;;;;;;;1.05;0.88;;;17.20;1.00;;;;;;5050090;28;20067;-80
2023/08/17 02:57:30;;;;;;;1.00;0.70;;;17.20;1.00;;;;;;5064533;28;20101;-80
2023/08/17 02:59:57;;;;;;;1.27;1.17;;;17.20;1.00;;;;;;5066414;28;20090;-81
2023/08/17 03:02:24;;;;;;;1.73;1.20;;;17.20;1.00;;;;;;5048856;28;20138;-80
2023/08/17 03:04:51;;;;;;;2.03;1.00;;;17.30;1.00;;;;;;5070867;28;20044;-80
2023/08/17 03:07:18;;;;;;;2.05;1.10;;;17.30;1.00;;;;;;5068148;28;20211;-80
2023/08/17 03:09:44;;;;;;;1.38;0.82;;;17.30;1.00;;;;;;5043424;28;20183;-81
2023/08/17 03:12:11;;;;;;;1.95;1.00;;;17.30;1.00;;;;;;5046621;28;20092;-80
2023/08/17 03:14:38;;;;;;;1.33;1.10;;;17.40;1.00;;;;;;5092098;28;20044;-80
2023/08/17 03:17:05;;;;;;;1.13;0.82;;;17.40;1.00;;;;;;5065966;28;20048;-80
2023/08/17 03:19:31;;;;;;;1.38;0.90;;;17.50;1.00;;;;;;5067316;28;20064;-80
2023/08/17 03:21:58;;;;;;;1.63;0.85;;;17.40;1.00;;;;;;5067202;28;20102;-80
2023/08/17 03:24:25;;;;;;;1.15;0.80;;;17.50;1.00;;;;;;5065698;28;20076;-79
2023/08/17 03:26:52;;;;;;;2.13;1.27;;;17.40;1.00;;;;;;5063703;28;20045;-80
2023/08/17 03:29:18;;;;;;;0.95;0.80;;;17.40;1.00;;;;;;5065340;28;20044;-81
2023/08/17 03:31:46;;;;;;;2.05;0.77;;;17.50;1.00;;;;;;5065526;28;20076;-80
2023/08/17 03:34:12;;;;;;;2.13;0.95;;;17.50;1.00;;;;;;5054443;28;20067;-80
2023/08/17 03:36:39;;;;;;;1.45;0.95;;;17.50;1.00;;;;;;5064674;28;20110;-79
2023/08/17 03:39:06;;;;;;;0.93;0.77;;;17.50;1.00;;;;;;5067485;28;20060;-80
2023/08/17 03:41:33;;;;;;;2.00;1.17;;;17.50;1.00;;;;;;5064157;28;20044;-80
2023/08/17 03:44:00;;;;;;;0.95;0.73;;;17.50;1.00;;;;;;5065806;28;20113;-80
2023/08/17 03:46:27;;;;;;;1.75;1.02;;;17.50;1.00;;;;;;5066595;28;20051;-80
2023/08/17 03:48:54;;;;;;;1.38;1.08;;;17.50;1.00;;;;;;5065752;28;20049;-80
2023/08/17 03:51:20;;;;;;;1.40;0.98;;;17.50;1.00;;;;;;5066522;28;20125;-81
2023/08/17 03:53:47;;;;;;;2.35;1.05;;;17.50;1.00;;;;;;5048907;28;20063;-80
2023/08/17 03:56:14;;;;;;;1.92;0.90;;;17.50;1.00;;;;;;5065047;28;20083;-80
2023/08/17 03:58:42;;;;;;;1.52;0.68;;;17.50;1.00;;;;;;5067003;28;20403;-80
2023/08/17 04:01:09;;;;;;;1.58;1.05;;;17.50;1.00;;;;;;5049252;28;20068;-79
2023/08/17 04:03:36;;;;;;;1.05;0.90;;;17.50;1.00;;;;;;5066685;28;20060;-80
2023/08/17 04:06:06;;;;;;;1.38;0.90;;;17.50;1.00;;;;;;5065562;28;20148;-80
2023/08/17 04:08:33;;;;;;;2.03;1.17;;;17.40;1.00;;;;;;5066340;28;20538;-80
2023/08/17 04:11:00;;;;;;;0.75;0.75;;;17.40;1.00;;;;;;5046385;28;20056;-80
2023/08/17 04:13:27;;;;;;;1.48;0.70;;;17.40;1.00;;;;;;5090183;28;20098;-81
2023/08/17 04:15:54;;;;;;;0.85;0.70;;;17.50;1.00;;;;;;5066187;28;20602;-80
2023/08/17 04:18:21;;;;;;;1.90;0.63;;;17.50;1.00;;;;;;5066104;28;20533;-80
2023/08/17 04:20:48;;;;;;;1.08;0.70;;;17.40;1.00;;;;;;5064979;28;20663;-81
2023/08/17 04:23:15;;;;;;;1.33;0.77;;;17.40;1.00;;;;;;5066328;28;20044;-80
2023/08/17 04:25:43;;;;;;;1.38;0.70;;;17.40;1.00;;;;;;5065838;28;20056;-80
2023/08/17 04:28:09;;;;;;;1.60;0.80;;;17.40;1.00;;;;;;5062351;28;20118;-81
2023/08/17 04:30:37;;;;;;;1.23;0.70;;;17.50;1.00;;;;;;5065537;28;20040;-80
2023/08/17 04:33:04;;;;;;;1.20;0.68;;;17.40;1.00;;;;;;5065128;28;20041;-80
2023/08/17 04:35:31;;;;;;;1.10;0.80;;;17.50;1.00;;;;;;5064848;28;20040;-80
2023/08/17 04:37:58;;;;;;;1.00;0.85;;;17.50;1.00;;;;;;5047995;28;20045;-80
2023/08/17 04:40:25;;;;;;;0.70;0.60;;;17.50;1.00;;;;;;5065040;28;20041;-80
2023/08/17 04:42:51;;;;;;;1.40;0.65;;;17.40;1.00;;;;;;5062529;28;20102;-80
2023/08/17 04:45:18;;;;;;;0.73;0.70;;;17.40;1.00;;;;;;5064869;28;20106;-80
2023/08/17 04:47:45;;;;;;;0.68;0.68;;;17.50;1.00;;;;;;5060956;28;20200;-80
2023/08/17 04:50:16;;;;;;;1.75;0.93;;;17.40;1.00;;;;;;5062024;28;20051;-80
2023/08/17 04:52:45;;;;;;;1.08;0.88;;;17.40;1.00;;;;;;5079102;28;20052;-78
2023/08/17 04:55:13;;;;;;;1.52;0.80;;;17.40;1.00;;;;;;5088972;28;20140;-80
2023/08/17 04:57:40;;;;;;;0.50;0.50;;;17.40;1.00;;;;;;5074203;28;20142;-80
2023/08/17 05:00:09;;;;;;;0.75;0.75;;;17.40;1.00;;;;;;5094241;28;20060;-82
2023/08/17 05:02:36;;;;;;;1.27;0.80;;;17.50;1.00;;;;;;5057662;28;20060;-80
2023/08/17 05:05:10;;;;;;;0.95;0.60;;;17.40;1.00;;;;;;5036805;28;20067;-80
2023/08/17 05:07:36;;;;;;;0.80;0.60;;;17.40;1.10;;;;;;5055109;28;20454;-80
2023/08/17 05:10:03;;;;;;;1.38;0.70;;;17.40;4.60;;;;;;5061796;28;20056;-79
2023/08/17 05:12:30;;;;;;;1.58;1.13;;;17.40;2.50;;;;;;5065083;28;20072;-80
2023/08/17 05:14:57;;;;;;;2.08;1.10;;;17.40;6.90;;;;;;5066745;28;20072;-81
2023/08/17 05:17:24;;;;;;;2.60;1.02;;;17.50;11.90;;;;;;5056600;28;20113;-81
2023/08/17 05:19:51;;;;;;;1.55;0.88;;;17.50;11.90;;;;;;5062835;28;20049;-81
2023/08/17 05:22:18;;;;;;;0.93;0.82;;;17.50;9.10;;;;;;5068798;28;20431;-80
2023/08/17 05:24:45;;;;;;;1.98;1.20;;;17.50;8.40;;;;;;5059263;28;20047;-80
2023/08/17 05:27:12;;;;;;;2.08;1.10;;;17.50;14.30;;;;;;5056674;28;20044;-81
2023/08/17 05:29:38;;;;;;;1.48;0.93;;;17.60;14.10;;;;;;5060444;28;20044;-80
2023/08/17 05:32:05;;;;;;;0.95;0.88;;;17.60;10.40;;;;;;5060404;28;20403;-81
2023/08/17 05:34:32;;;;;;;1.15;0.80;;;17.70;10.20;;;;;;5063834;28;20164;-80
2023/08/17 05:36:59;;;;;;;2.88;0.95;;;17.70;4.30;;;;;;5061496;28;20052;-80
2023/08/17 05:39:26;;;;;;;1.10;0.70;;;17.70;10.60;;;;;;5060291;28;20082;-81
2023/08/17 05:41:53;;;;;;;1.85;0.90;;;17.70;1.70;;;;;;5053781;28;20068;-80
2023/08/17 05:44:20;;;;;;;1.08;0.80;;;17.70;3.30;;;;;;5056391;28;20189;-80
2023/08/17 05:46:47;;;;;;;1.20;0.93;;;17.80;1.00;;;;;;5034187;28;20044;-80
2023/08/17 05:49:14;;;;;;;1.20;0.93;;;17.80;1.00;;;;;;5061570;28;20052;-80
2023/08/17 05:51:40;;;;;;;1.38;0.93;;;17.80;1.00;;;;;;5063348;28;20044;-80
2023/08/17 05:54:07;;;;;;;2.17;1.00;;;17.80;1.00;;;;;;5061588;28;20053;-80
2023/08/17 05:56:34;;;;;;;1.00;0.60;;;17.80;1.00;;;;;;5060593;28;20614;-80
2023/08/17 05:59:01;;;;;;;0.88;0.70;;;17.90;1.00;;;;;;5057555;28;20044;-79
2023/08/17 06:01:27;;;;;;;1.73;0.90;;;17.90;1.00;;;;;;5056514;28;20131;-80
2023/08/17 06:03:54;;;;;;;2.50;1.20;;;17.90;1.00;;;;;;5058119;28;20060;-80
2023/08/17 06:06:21;;;;;;;0.85;0.50;;;18.00;1.00;;;;;;5057587;28;20048;-80
2023/08/17 06:08:48;;;;;;;0.75;0.63;;;18.00;1.00;;;;;;5061206;28;20080;-80
2023/08/17 06:11:15;;;;;;;2.50;0.93;;;18.00;1.00;;;;;;5058734;28;20052;-80
2023/08/17 06:13:41;;;;;;;1.63;1.13;;;18.00;1.00;;;;;;5060315;28;20052;-82
2023/08/17 06:16:08;;;;;;;1.02;0.90;;;18.00;1.00;;;;;;5053202;28;20052;-81
2023/08/17 06:18:36;;;;;;;1.95;1.20;;;18.00;1.00;;;;;;5057052;28;20072;-81
2023/08/17 06:21:02;;;;;;;2.80;1.17;;;18.00;1.00;;;;;;5037302;28;20056;-79
2023/08/17 06:23:29;;;;;;;1.25;0.77;;;18.10;1.00;;;;;;5058049;28;20056;-81
2023/08/17 06:25:58;;;;;;;0.80;0.70;;;18.20;1.00;;;;;;5052825;28;20060;-78
2023/08/17 06:28:25;;;;;;;1.30;0.82;;;18.20;1.00;;;;;;5039531;28;20052;-81
2023/08/17 06:30:55;;;;;;;1.35;0.95;;;18.30;1.00;;;;;;5059384;28;20052;-80
2023/08/17 06:33:22;;;;;;;2.13;1.27;;;18.30;1.00;;;;;;5057262;28;20063;-80
2023/08/17 06:35:49;;;;;;;1.20;0.88;;;18.30;1.00;;;;;;5023214;28;20049;-81
2023/08/17 06:38:15;;;;;;;1.58;0.88;;;18.40;1.00;;;;;;5039138;28;20559;-81
2023/08/17 06:40:43;;;;;;;1.83;1.10;;;18.40;1.00;;;;;;5057589;28;20143;-79
2023/08/17 06:43:10;;;;;;;2.08;1.13;;;18.40;1.00;;;;;;5056305;28;20419;-81
2023/08/17 06:45:36;;;;;;;2.53;1.48;;;18.50;1.00;;;;;;5058372;28;20148;-81
2023/08/17 06:48:03;;;;;;;2.33;1.73;;;18.40;1.00;;;;;;5048358;28;20041;-80
2023/08/17 06:50:30;;;;;;;2.08;1.10;;;18.50;1.00;;;;;;5043927;28;20068;-81
2023/08/17 06:52:57;;;;;;;0.80;0.80;;;18.50;1.00;;;;;;5058010;28;20052;-81
2023/08/17 06:55:24;;;;;;;2.50;1.13;;;18.70;1.00;;;;;;5062640;28;20455;-81
2023/08/17 06:57:51;;;;;;;1.33;0.85;;;18.70;1.00;;;;;;5059963;28;20056;-82
2023/08/17 07:00:21;;;;;;;1.95;1.10;;;18.90;1.00;;;;;;5058260;28;20053;-81
2023/08/17 07:02:48;;;;;;;2.67;1.10;;;19.00;99.90;;;;;;5060908;28;20098;-82
2023/08/17 07:05:23;;;;;;;2.80;1.33;;;19.00;99.90;;;;;;5060526;28;20061;-82
2023/08/17 07:07:50;;;;;;;3.67;1.30;;;19.00;99.90;;;;;;5061742;28;20052;-82
2023/08/17 07:10:17;;;;;;;2.00;1.30;;;19.10;99.90;;;;;;5064641;28;20875;-82
2023/08/17 07:12:44;;;;;;;1.58;1.10;;;19.10;99.90;;;;;;5045926;28;20064;-82
2023/08/17 07:15:11;;;;;;;2.83;1.27;;;19.20;99.90;;;;;;5048078;28;20106;-81
2023/08/17 07:17:37;;;;;;;2.17;1.55;;;19.30;99.90;;;;;;5064113;28;20114;-81
2023/08/17 07:20:07;;;;;;;1.77;1.20;;;19.30;99.90;;;;;;5059281;28;20087;-81
2023/08/17 07:22:43;;;;;;;2.67;1.30;;;19.30;99.90;;;;;;5064632;28;20148;-81
2023/08/17 07:25:09;;;;;;;2.85;1.83;;;19.30;87.70;;;;;;5064214;28;20060;-81
2023/08/17 07:27:36;;;;;;;2.85;1.20;;;19.30;99.90;;;;;;5063530;28;20088;-80
2023/08/17 07:30:03;;;;;;;2.85;1.27;;;19.30;99.90;;;;;;5064302;28;20060;-81
2023/08/17 07:32:30;;;;;;;2.63;1.50;;;19.30;69.50;;;;;;5064933;28;20083;-81
2023/08/17 07:34:57;;;;;;;1.92;1.50;;;19.40;47.40;;;;;;5065338;28;20044;-81
2023/08/17 07:37:25;;;;;;;2.33;1.20;;;19.50;25.10;;;;;;5064757;28;20123;-81
2023/08/17 07:39:52;;;;;;;2.38;1.27;;;19.60;1.00;;;;;;5061494;28;20053;-81
2023/08/17 07:42:19;;;;;;;2.83;1.38;;;19.70;99.90;;;;;;5056234;28;20056;-82
2023/08/17 07:44:46;;;;;;;1.65;1.00;;;19.80;99.90;;;;;;5062214;28;20057;-81
2023/08/17 07:47:12;;;;;;;2.03;1.10;;;19.90;99.90;;;;;;5052362;28;20474;-81
2023/08/17 07:49:39;;;;;;;3.03;1.42;;;20.10;99.90;;;;;;5062179;28;20404;-80
2023/08/17 07:52:06;;;;;;;3.42;1.70;;;20.10;99.90;;;;;;5061594;28;20048;-81
2023/08/17 07:54:33;;;;;;;3.30;1.23;;;20.20;7.80;;;;;;5057868;28;20060;-81
2023/08/17 07:57:00;;;;;;;2.05;1.08;;;20.30;1.00;;;;;;5059930;28;20076;-81
2023/08/17 07:59:27;;;;;;;3.78;1.50;;;20.40;99.90;;;;;;5060041;28;20053;-81
2023/08/17 08:01:54;;;;;;;2.17;1.17;;;20.50;99.90;;;;;;5061574;28;20052;-84
2023/08/17 08:04:21;;;;;;;2.03;1.02;;;20.50;1.00;;;;;;5066180;28;20564;-85
2023/08/17 08:06:47;;;;;;;2.65;1.25;;;20.60;99.90;;;;;;5048512;28;20053;-86
2023/08/17 08:09:14;;;;;;;2.30;1.10;;;20.60;99.90;;;;;;5051915;28;20103;-85
2023/08/17 08:11:41;;;;;;;2.83;1.27;;;20.70;79.30;;;;;;5047495;28;20052;-87
2023/08/17 08:14:08;;;;;;;2.45;1.10;;;20.90;99.90;;;;;;5065892;28;20551;-88
2023/08/17 08:16:35;;;;;;;2.35;1.23;;;20.90;99.90;;;;;;5068693;28;20114;-86
2023/08/17 08:19:02;;;;;;;1.77;1.20;;;21.00;1.00;;;;;;5073869;28;20113;-86
2023/08/17 08:21:29;;;;;;;1.30;0.82;;;21.10;1.00;;;;;;5065363;28;20144;-87
2023/08/17 08:23:56;;;;;;;2.00;1.30;;;21.20;99.90;;;;;;5063250;28;20129;-87
2023/08/17 08:26:23;;;;;;;3.17;1.50;;;21.40;99.90;;;;;;5060820;28;20040;-86
2023/08/17 08:28:49;;;;;;;2.45;1.40;;;21.20;61.80;;;;;;5065290;28;20052;-87
2023/08/17 08:31:16;;;;;;;2.13;1.23;;;21.20;99.90;;;;;;5061208;28;20088;-87
2023/08/17 08:33:43;;;;;;;2.05;1.20;;;21.30;1.00;;;;;;5061336;28;20072;-87
2023/08/17 08:36:10;;;;;;;2.97;1.20;;;21.40;99.90;;;;;;5067921;28;20484;-85
2023/08/17 08:38:37;;;;;;;2.92;1.10;;;21.30;99.90;;;;;;5061561;28;20098;-87
2023/08/17 08:41:03;;;;;;;3.63;1.42;;;21.40;99.90;;;;;;5046758;28;20060;-84
2023/08/17 08:43:30;;;;;;;2.42;1.30;;;21.30;99.90;;;;;;5043085;28;20529;-87
2023/08/17 08:45:58;;;;;;;1.52;1.05;;;21.30;1.00;;;;;;5067812;28;20063;-86
2023/08/17 08:48:26;;;;;;;2.03;0.90;;;21.40;99.90;;;;;;5051740;28;20072;-87
2023/08/17 08:50:54;;;;;;;3.00;1.40;;;21.50;99.00;;;;;;5067072;28;20048;-87
2023/08/17 08:53:39;;;;;;;2.03;1.05;;;21.50;1.00;;;;;;5065313;28;20052;-86
2023/08/17 08:56:07;;;;;;;3.45;1.38;;;21.40;99.90;;;;;;5050615;28;20049;-83
2023/08/17 08:58:34;;;;;;;2.53;1.00;;;21.50;99.90;;;;;;5063023;28;20071;-87
2023/08/17 09:01:00;;;;;;;2.92;1.10;;;21.70;99.90;;;;;;5040865;28;20056;-85
2023/08/17 09:03:27;;;;;;;1.60;0.82;;;21.90;1.00;;;;;;5062401;28;20071;-84
2023/08/17 09:05:54;;;;;;;2.42;1.13;;;22.10;99.90;;;;;;5052571;28;20144;-83
2023/08/17 09:08:22;;;;;;;3.17;1.33;;;22.20;1.00;;;;;;5063709;28;20128;-86
2023/08/17 09:10:50;;;;;;;3.78;1.17;;;22.10;99.90;;;;;;5061303;28;20044;-82
2023/08/17 09:13:17;;;;;;;2.15;1.08;;;21.90;99.90;;;;;;5053973;28;20452;-82
2023/08/17 09:15:43;;;;;;;1.70;0.80;;;21.90;99.90;;;;;;5056846;28;20044;-81
2023/08/17 09:18:10;;;;;;;2.47;1.48;;;22.10;99.90;;;;;;5058324;28;20121;-82
2023/08/17 09:20:44;;;;;;;3.40;1.33;;;22.40;99.90;;;;;;5058948;28;20056;-82
2023/08/17 09:23:15;;;;;;;2.40;1.33;;;22.30;99.90;;;;;;5047844;28;20048;-82
2023/08/17 09:25:43;;;;;;;2.47;1.42;;;22.50;99.90;;;;;;5045363;28;20056;-83
2023/08/17 09:28:14;;;;;;;2.25;1.42;;;22.70;99.90;;;;;;5035460;28;20067;-81
2023/08/17 09:30:58;;;;;;;3.10;1.40;;;22.60;99.90;;;;;;5035063;28;20044;-82
2023/08/17 09:33:28;;;;;;;2.05;1.20;;;22.50;99.90;;;;;;5070836;28;20330;-82
2023/08/17 09:35:56;;;;;;;2.55;1.08;;;22.40;99.90;;;;;;5057175;28;20052;-81
2023/08/17 09:38:26;;;;;;;2.22;1.10;;;22.40;99.90;;;;;;5057866;28;20123;-80
2023/08/17 09:40:53;;;;;;;4.03;1.67;;;22.60;99.90;;;;;;5043959;28;20499;-80
2023/08/17 09:43:20;;;;;;;3.78;1.60;;;22.80;99.90;;;;;;5059047;28;20068;-81
2023/08/17 09:45:49;;;;;;;3.15;1.20;;;22.80;99.90;;;;;;5052918;28;20041;-81
2023/08/17 09:48:17;;;;;;;3.13;1.30;;;22.70;99.90;;;;;;5094293;28;20048;-81
2023/08/17 09:50:45;;;;;;;2.33;1.35;;;22.80;99.90;;;;;;5060101;28;20441;-81
2023/08/17 09:53:18;;;;;;;2.03;1.10;;;22.90;99.90;;;;;;5058424;28;20140;-82
2023/08/17 09:55:45;;;;;;;1.58;1.05;;;23.20;99.90;;;;;;5058246;28;20453;-80
2023/08/17 09:58:15;;;;;;;1.83;1.13;;;23.40;99.90;;;;;;5054936;28;20563;-81
2023/08/17 10:00:46;;;;;;;3.35;1.30;;;23.50;99.90;;;;;;5056946;28;20550;-88
2023/08/17 10:03:19;;;;;;;3.08;1.33;;;23.30;98.80;;;;;;5062414;28;20056;-89
2023/08/17 10:05:51;;;;;;;3.33;1.50;;;23.30;99.10;;;;;;5036797;28;20063;-89
2023/08/17 10:08:21;;;;;;;1.75;0.93;;;23.10;98.50;;;;;;5066027;28;20454;-89
2023/08/17 10:10:48;;;;;;;2.92;1.00;;;23.20;97.30;;;;;;5070059;28;20049;-89
2023/08/17 10:13:18;;;;;;;3.28;1.65;;;23.10;93.00;;;;;;5061505;28;20051;-89
2023/08/17 10:16:09;;;;;;;3.20;1.35;;;23.10;90.30;;;;;;5071214;28;20487;-88
2023/08/17 10:18:42;;;;;;;2.85;0.80;;;23.20;89.70;;;;;;5065858;28;20045;-86
2023/08/17 10:21:13;;;;;;;;;;;23.30;86.10;;;;;;5065858;28;20060;-88
2023/08/17 10:23:40;;;;;;;2.40;1.00;;;23.60;83.90;;;;;;5061396;28;20318;-89
2023/08/17 10:26:08;;;;;;;2.30;0.90;;;23.70;80.80;;;;;;5062073;28;20060;-88
2023/08/17 10:28:35;;;;;;;2.97;0.93;;;23.70;90.80;;;;;;5066742;28;20056;-88
2023/08/17 10:31:02;;;;;;;2.60;1.17;;;23.70;76.20;;;;;;5078338;28;20101;-87
2023/08/17 10:33:29;;;;;;;1.55;0.90;;;23.50;71.80;;;;;;5067541;28;20400;-89
2023/08/17 10:35:56;;;;;;;3.88;1.50;;;23.50;71.60;;;;;;5101553;28;20052;-89
2023/08/17 10:38:22;;;;;;;2.03;1.05;;;23.60;71.60;;;;;;5065262;28;20056;-89
2023/08/17 10:41:17;;;;;;;1.63;0.90;;;23.50;72.50;;;;;;5065567;28;20044;-86
2023/08/17 10:44:00;;;;;;;2.17;1.25;;;23.70;75.60;;;;;;5067079;28;20060;-87
2023/08/17 10:46:34;;;;;;;4.10;1.95;;;23.80;64.30;;;;;;5057216;28;20063;-87
2023/08/17 10:49:05;;;;;;;3.50;1.20;;;23.90;62.60;;;;;;5069412;28;20067;-87
2023/08/17 10:51:33;;;;;;;2.65;1.20;;;24.00;62.40;;;;;;5069523;28;20045;-87
2023/08/17 10:54:03;;;;;;;2.03;0.93;;;24.20;62.20;;;;;;5066451;28;20051;-86
2023/08/17 10:56:30;;;;;;;2.40;0.90;;;24.40;62.90;;;;;;5084690;28;20256;-84
2023/08/17 10:59:01;;;;;;;1.42;0.80;;;24.40;58.70;;;;;;5070316;28;20649;-85
2023/08/17 11:01:35;;;;;;;2.20;1.00;;;24.20;52.90;;;;;;5036898;28;20108;-87
2023/08/17 11:04:11;;;;;;;2.63;0.90;;;24.00;52.90;;;;;;5053778;28;20052;-87
2023/08/17 11:06:38;;;;;;;2.53;1.13;;;23.80;51.10;;;;;;5054304;28;20048;-87
2023/08/17 11:09:08;;;;;;;1.40;0.73;;;23.60;49.20;;;;;;5045536;28;20060;-87
2023/08/17 11:11:35;;;;;;;2.67;1.20;;;23.60;50.70;;;;;;5051519;28;20053;-87
2023/08/17 11:14:02;;;;;;;1.63;0.65;;;23.80;49.60;;;;;;5053573;28;20056;-84
2023/08/17 11:16:29;;;;;;;1.85;0.70;;;24.20;50.10;;;;;;5052344;28;20055;-86
2023/08/17 11:18:58;;;;;;;2.28;1.27;;;24.60;50.80;;;;;;5069046;28;20337;-86
2023/08/17 11:21:25;;;;;;;2.17;0.70;;;24.80;51.30;;;;;;5068507;28;20086;-85
2023/08/17 11:23:54;;;;;;;0.93;0.60;;;24.80;48.70;;;;;;5100409;28;20048;-86
2023/08/17 11:26:22;;;;;;;1.33;0.80;;;24.80;47.70;;;;;;5082267;28;20080;-86
2023/08/17 11:28:49;;;;;;;2.17;0.80;;;24.60;43.50;;;;;;5100266;28;20052;-85
2023/08/17 11:31:15;;;;;;;1.45;0.75;;;24.60;41.90;;;;;;5084766;28;20106;-87
2023/08/17 11:33:43;;;;;;;1.38;0.80;;;24.80;43.10;;;;;;5103136;28;20064;-87
2023/08/17 11:36:10;;;;;;;1.92;1.00;;;25.30;44.50;;;;;;5069554;28;20056;-86
2023/08/17 11:38:38;;;;;;;2.10;0.95;;;25.60;41.80;;;;;;5070584;28;20048;-86
2023/08/17 11:41:08;;;;;;;1.42;1.00;;;25.80;38.80;;;;;;5071578;28;20480;-85
2023/08/17 11:43:35;;;;;;;2.03;1.00;;;25.90;36.20;;;;;;5036677;28;20060;-86
2023/08/17 11:46:02;;;;;;;1.45;0.70;;;26.20;36.80;;;;;;5050594;28;20082;-85
2023/08/17 11:48:29;;;;;;;1.52;0.70;;;26.50;32.70;;;;;;5067613;28;20558;-86
2023/08/17 11:51:01;;;;;;;2.05;0.80;;;26.40;28.60;;;;;;5070264;28;20083;-85
2023/08/17 11:53:35;;;;;;;2.58;0.90;;;26.30;28.30;;;;;;5071407;28;20062;-85
2023/08/17 11:56:02;;;;;;;1.88;0.80;;;26.40;26.00;;;;;;5064122;28;20475;-83
2023/08/17 11:58:45;;;;;;;1.75;0.70;;;26.50;24.30;;;;;;5047778;28;20063;-86
2023/08/17 12:01:13;;;;;;;2.22;0.70;;;26.40;21.40;;;;;;5065719;28;20048;-85
2023/08/17 12:03:41;;;;;;;1.08;0.70;;;26.60;21.70;;;;;;5031110;28;20947;-83
2023/08/17 12:06:09;;;;;;;2.05;1.02;;;26.90;21.90;;;;;;5044227;28;20057;-84
2023/08/17 12:08:36;;;;;;;2.65;1.00;;;27.30;22.30;;;;;;5063405;28;20718;-83
2023/08/17 12:11:03;;;;;;;1.77;0.75;;;27.30;17.30;;;;;;5080975;28;20488;-84
2023/08/17 12:13:34;;;;;;;1.67;0.90;;;27.30;16.50;;;;;;5098905;28;20055;-85
2023/08/17 12:16:01;;;;;;;1.23;0.68;;;27.20;14.30;;;;;;5101470;28;20052;-90
2023/08/17 12:18:28;;;;;;;1.88;1.00;;;26.60;11.60;;;;;;5069802;28;20113;-88
2023/08/17 12:20:55;;;;;;;1.10;0.88;;;26.80;10.90;;;;;;5062767;28;20156;-88
2023/08/17 12:23:22;;;;;;;0.80;0.60;;;27.00;12.80;;;;;;5054136;28;20040;-89
2023/08/17 12:25:55;;;;;;;2.30;0.80;;;27.00;9.40;;;;;;5079038;28;20049;-90
2023/08/17 12:28:23;;;;;;;1.45;0.70;;;27.30;8.70;;;;;;5061703;28;20164;-87
2023/08/17 12:30:58;;;;;;;1.40;0.75;;;27.20;7.40;;;;;;5067156;28;20052;-85
2023/08/17 12:33:24;;;;;;;2.10;1.00;;;27.50;9.70;;;;;;5067984;28;20052;-86
2023/08/17 12:35:51;;;;;;;1.10;0.80;;;27.70;8.10;;;;;;5068883;28;20049;-88
2023/08/17 12:38:18;;;;;;;2.03;1.20;;;27.60;4.50;;;;;;5103208;28;20150;-87
2023/08/17 12:40:45;;;;;;;2.05;1.15;;;27.90;1.60;;;;;;5052923;28;20377;-88
2023/08/17 12:43:12;;;;;;;1.42;0.80;;;28.10;1.80;;;;;;5051802;28;20476;-88
2023/08/17 12:45:41;;;;;;;1.25;1.00;;;28.40;1.00;;;;;;5066751;28;20060;-87
2023/08/17 12:48:08;;;;;;;1.90;0.88;;;28.40;1.00;;;;;;5061465;28;20052;-84
2023/08/17 12:50:35;;;;;;;1.60;0.77;;;28.00;1.00;;;;;;5061586;28;20128;-85
2023/08/17 12:53:09;;;;;;;1.38;0.90;;;28.10;1.00;;;;;;5059753;28;20056;-84
2023/08/17 12:55:35;;;;;;;1.15;0.70;;;27.70;1.00;;;;;;5027065;28;20058;-84
2023/08/17 12:58:03;;;;;;;1.33;0.73;;;27.60;1.00;;;;;;5058120;28;20136;-84